createdAt,value
2018-08-30T00:01:51.438Z,20.60
2018-08-30T00:04:19.604Z,20.60
2018-08-30T00:06:47.800Z,20.60
2018-08-30T00:09:15.977Z,20.20
2018-08-30T00:11:44.186Z,20.40
2018-08-30T00:14:12.337Z,20.50
2018-08-30T00:16:40.545Z,20.20
2018-08-30T00:19:08.695Z,20.40
2018-08-30T00:21:36.885Z,20.30
2018-08-30T00:24:05.069Z,20.20
2018-08-30T00:26:33.260Z,20.20
2018-08-30T00:29:01.428Z,20.30
2018-08-30T00:31:29.683Z,20.20
2018-08-30T00:33:57.877Z,20.20
2018-08-30T00:36:26.055Z,20.00
2018-08-30T00:38:54.245Z,20.20
2018-08-30T00:41:22.474Z,20.10
2018-08-30T00:43:50.625Z,20.10
2018-08-30T00:46:19.208Z,20.10
2018-08-30T00:48:47.389Z,20.10
2018-08-30T00:51:15.561Z,20.10
2018-08-30T00:53:43.713Z,19.80
2018-08-30T00:56:11.926Z,20.00
2018-08-30T00:58:40.149Z,20.10
2018-08-30T01:01:08.341Z,20.00
2018-08-30T01:03:36.509Z,20.00
2018-08-30T01:06:04.790Z,20.10
2018-08-30T01:08:32.950Z,19.90
2018-08-30T01:11:01.118Z,19.90
2018-08-30T01:13:29.289Z,19.90
2018-08-30T01:15:57.465Z,19.80
2018-08-30T01:18:25.629Z,19.80
2018-08-30T01:20:53.845Z,19.80
2018-08-30T01:23:21.992Z,19.90
2018-08-30T01:25:50.164Z,19.80
2018-08-30T01:28:18.313Z,19.10
2018-08-30T01:30:46.490Z,19.70
2018-08-30T01:33:14.664Z,19.70
2018-08-30T01:35:42.842Z,19.70
2018-08-30T01:38:10.998Z,19.60
2018-08-30T01:40:39.158Z,19.60
2018-08-30T01:43:07.358Z,19.60
2018-08-30T01:45:35.581Z,19.60
2018-08-30T01:48:03.738Z,19.50
2018-08-30T01:50:31.888Z,19.40
2018-08-30T01:53:00.048Z,19.40
2018-08-30T01:55:28.204Z,19.40
2018-08-30T01:57:56.382Z,19.40
2018-08-30T02:00:24.554Z,19.30
2018-08-30T02:02:52.706Z,19.30
2018-08-30T02:05:20.854Z,19.30
2018-08-30T02:10:16.972Z,19.20
2018-08-30T02:12:45.153Z,19.30
2018-08-30T02:15:13.328Z,19.00
2018-08-30T02:17:41.542Z,19.30
2018-08-30T02:20:09.691Z,19.20
2018-08-30T02:22:37.834Z,19.00
2018-08-30T02:25:05.986Z,19.00
2018-08-30T02:27:34.187Z,19.20
2018-08-30T02:30:02.345Z,19.20
2018-08-30T02:34:58.521Z,19.10
2018-08-30T02:37:26.705Z,19.00
2018-08-30T02:39:54.897Z,18.80
2018-08-30T02:42:23.310Z,18.80
2018-08-30T02:44:51.496Z,18.80
2018-08-30T02:47:19.712Z,18.60
2018-08-30T02:49:47.897Z,18.60
2018-08-30T02:52:16.114Z,18.70
2018-08-30T02:54:44.268Z,18.70
2018-08-30T02:57:12.433Z,18.60
2018-08-30T03:02:08.540Z,18.10
2018-08-30T03:04:36.734Z,18.40
2018-08-30T03:07:04.907Z,18.40
2018-08-30T03:09:33.073Z,18.40
2018-08-30T03:12:01.214Z,18.30
2018-08-30T03:14:29.357Z,18.40
2018-08-30T03:16:57.531Z,18.40
2018-08-30T03:19:25.699Z,18.30
2018-08-30T03:21:53.891Z,18.30
2018-08-30T03:24:22.055Z,18.30
2018-08-30T03:26:50.233Z,18.30
2018-08-30T03:29:18.438Z,18.30
2018-08-30T03:31:46.651Z,18.30
2018-08-30T03:34:14.845Z,18.50
2018-08-30T03:36:42.998Z,18.30
2018-08-30T03:39:11.167Z,18.20
2018-08-30T03:41:39.310Z,18.20
2018-08-30T03:44:07.514Z,18.30
2018-08-30T03:46:35.713Z,18.00
2018-08-30T03:49:03.873Z,17.80
2018-08-30T03:51:32.045Z,18.30
2018-08-30T03:54:00.217Z,18.10
2018-08-30T03:56:28.381Z,18.10
2018-08-30T03:58:56.552Z,18.00
2018-08-30T04:01:24.763Z,17.90
2018-08-30T04:03:52.939Z,17.70
2018-08-30T04:06:21.446Z,18.00
2018-08-30T04:08:49.640Z,18.00
2018-08-30T04:11:17.827Z,18.20
2018-08-30T04:13:46.097Z,17.90
2018-08-30T04:16:14.269Z,17.90
2018-08-30T04:18:42.422Z,18.30
2018-08-30T04:21:10.571Z,18.00
2018-08-30T04:23:38.781Z,17.90
2018-08-30T04:26:06.970Z,18.00
2018-08-30T04:28:35.171Z,17.90
2018-08-30T04:31:03.385Z,17.70
2018-08-30T04:33:31.577Z,17.80
2018-08-30T04:35:59.749Z,17.90
2018-08-30T04:38:27.917Z,17.80
2018-08-30T04:40:56.104Z,17.80
2018-08-30T04:43:24.258Z,17.70
2018-08-30T04:45:52.445Z,17.80
2018-08-30T04:48:20.643Z,17.90
2018-08-30T04:50:48.805Z,17.80
2018-08-30T04:53:17.149Z,17.40
2018-08-30T04:55:45.305Z,17.70
2018-08-30T04:58:13.809Z,17.80
2018-08-30T05:00:41.994Z,17.70
2018-08-30T05:03:10.141Z,17.40
2018-08-30T05:05:38.293Z,17.70
2018-08-30T05:08:06.449Z,17.90
2018-08-30T05:10:34.668Z,17.70
2018-08-30T05:13:02.818Z,17.70
2018-08-30T05:15:30.973Z,17.60
2018-08-30T05:17:59.150Z,17.70
2018-08-30T05:20:27.307Z,17.70
2018-08-30T05:22:55.510Z,17.70
2018-08-30T05:25:23.676Z,17.30
2018-08-30T05:27:51.838Z,17.70
2018-08-30T05:30:19.998Z,17.60
2018-08-30T05:32:48.159Z,17.50
2018-08-30T05:35:16.356Z,17.80
2018-08-30T05:37:44.555Z,17.50
2018-08-30T05:40:12.724Z,17.80
2018-08-30T05:42:40.941Z,17.60
2018-08-30T05:45:09.153Z,17.60
2018-08-30T05:47:37.329Z,17.70
2018-08-30T05:50:05.829Z,17.60
2018-08-30T05:52:34.150Z,17.40
2018-08-30T05:55:02.441Z,17.80
2018-08-30T05:57:30.633Z,17.70
2018-08-30T06:02:28.343Z,17.70
2018-08-30T06:04:56.579Z,17.90
2018-08-30T06:07:24.861Z,17.70
2018-08-30T06:12:20.870Z,17.60
2018-08-30T06:14:49.084Z,17.70
2018-08-30T06:17:17.292Z,17.80
2018-08-30T06:19:45.471Z,17.70
2018-08-30T06:22:13.689Z,17.60
2018-08-30T06:24:41.870Z,17.70
2018-08-30T06:27:10.033Z,17.70
2018-08-30T06:29:38.209Z,17.70
2018-08-30T06:32:06.622Z,17.40
2018-08-30T06:34:34.894Z,17.70
2018-08-30T06:37:02.984Z,17.70
2018-08-30T06:39:31.145Z,17.80
2018-08-30T06:41:59.353Z,17.70
2018-08-30T06:46:55.459Z,17.90
2018-08-30T06:49:23.617Z,17.90
2018-08-30T06:51:51.811Z,17.80
2018-08-30T06:54:19.972Z,17.80
2018-08-30T06:56:48.123Z,18.00
2018-08-30T06:59:16.281Z,17.80
2018-08-30T07:01:44.447Z,17.40
2018-08-30T07:04:12.658Z,17.50
2018-08-30T07:11:40.378Z,16.80
2018-08-30T07:14:08.708Z,17.30
2018-08-30T07:16:36.979Z,17.10
2018-08-30T07:19:05.230Z,17.30
2018-08-30T07:21:33.377Z,17.50
2018-08-30T07:24:03.085Z,17.60
2018-08-30T07:26:31.347Z,17.80
2018-08-30T07:28:59.505Z,17.70
2018-08-30T07:31:27.667Z,17.70
2018-08-30T07:33:55.850Z,17.40
2018-08-30T07:36:24.012Z,17.60
2018-08-30T07:38:52.193Z,17.70
2018-08-30T07:41:20.367Z,17.50
2018-08-30T07:43:48.643Z,17.80
2018-08-30T07:46:16.812Z,17.80
2018-08-30T07:48:44.990Z,17.90
2018-08-30T07:51:13.403Z,18.00
2018-08-30T07:53:41.574Z,18.00
2018-08-30T07:56:09.897Z,18.00
2018-08-30T07:58:38.078Z,18.40
2018-08-30T08:01:06.270Z,18.50
2018-08-30T08:03:34.457Z,19.30
2018-08-30T08:06:02.695Z,19.10
2018-08-30T08:08:30.782Z,20.00
2018-08-30T08:10:58.966Z,19.70
2018-08-30T08:13:27.121Z,19.70
2018-08-30T08:18:23.232Z,19.40
2018-08-30T08:23:19.341Z,19.30
2018-08-30T08:25:47.506Z,19.20
2018-08-30T08:28:15.722Z,19.20
2018-08-30T08:30:43.890Z,19.20
2018-08-30T08:33:12.044Z,19.40
2018-08-30T08:35:40.253Z,19.60
2018-08-30T08:38:08.396Z,19.60
2018-08-30T08:40:36.562Z,19.70
2018-08-30T08:43:04.698Z,20.10
2018-08-30T08:45:32.866Z,20.10
2018-08-30T08:48:01.041Z,20.40
2018-08-30T08:52:57.199Z,20.20
2018-08-30T08:55:25.373Z,19.90
2018-08-30T08:57:53.545Z,19.80
2018-08-30T09:00:21.704Z,19.60
2018-08-30T09:02:49.848Z,19.70
2018-08-30T09:05:18.029Z,19.40
2018-08-30T09:07:46.343Z,19.30
2018-08-30T09:10:14.353Z,19.50
2018-08-30T09:12:42.524Z,19.00
2018-08-30T09:15:10.728Z,19.50
2018-08-30T09:17:38.888Z,19.50
2018-08-30T09:20:07.370Z,19.40
2018-08-30T09:22:35.536Z,19.40
2018-08-30T09:25:03.771Z,19.70
2018-08-30T09:27:31.936Z,19.50
2018-08-30T09:30:00.185Z,19.80
2018-08-30T09:32:28.608Z,19.80
2018-08-30T09:34:56.930Z,20.00
2018-08-30T09:37:25.109Z,20.20
2018-08-30T09:39:53.258Z,20.20
2018-08-30T09:42:21.425Z,20.10
2018-08-30T09:44:49.584Z,20.70
2018-08-30T09:47:17.794Z,21.20
2018-08-30T09:49:46.093Z,21.90
2018-08-30T09:52:14.147Z,22.00
2018-08-30T09:54:42.319Z,22.50
2018-08-30T09:57:10.724Z,21.30
2018-08-30T09:59:38.771Z,21.40
2018-08-30T10:02:12.406Z,21.70
2018-08-30T10:04:40.586Z,21.60
2018-08-30T10:07:08.759Z,22.00
2018-08-30T10:09:37.183Z,22.30
2018-08-30T10:12:05.398Z,22.50
2018-08-30T10:14:33.556Z,22.30
2018-08-30T10:17:01.735Z,23.00
2018-08-30T10:19:29.896Z,23.90
2018-08-30T10:21:58.090Z,23.40
2018-08-30T10:24:26.240Z,23.60
2018-08-30T10:26:54.402Z,23.60
2018-08-30T10:29:22.579Z,24.80
2018-08-30T10:31:50.741Z,25.00
2018-08-30T10:34:18.937Z,22.80
2018-08-30T10:36:47.157Z,22.80
2018-08-30T10:41:43.269Z,22.60
2018-08-30T10:44:11.472Z,22.60
2018-08-30T10:46:39.661Z,23.00
2018-08-30T10:49:07.843Z,26.40
2018-08-30T10:51:36.033Z,26.30
2018-08-30T10:54:15.759Z,24.90
2018-08-30T10:56:45.991Z,24.90
2018-08-30T10:59:14.252Z,25.30
2018-08-30T11:01:42.661Z,25.80
2018-08-30T11:04:10.882Z,25.70
2018-08-30T11:06:39.065Z,26.00
2018-08-30T11:09:08.310Z,25.50
2018-08-30T11:11:36.486Z,25.70
2018-08-30T11:14:04.705Z,26.90
2018-08-30T11:16:32.894Z,26.70
2018-08-30T11:19:01.093Z,26.80
2018-08-30T11:21:29.287Z,25.10
2018-08-30T11:23:57.493Z,25.30
2018-08-30T11:26:25.805Z,26.00
2018-08-30T11:28:53.985Z,26.30
2018-08-30T11:31:22.417Z,25.30
2018-08-30T11:33:50.624Z,25.40
2018-08-30T11:36:18.803Z,25.40
2018-08-30T11:38:46.980Z,24.20
2018-08-30T11:41:15.167Z,23.70
2018-08-30T11:43:43.329Z,23.80
2018-08-30T11:46:11.526Z,23.50
2018-08-30T11:48:39.785Z,24.60
2018-08-30T11:51:07.989Z,25.10
2018-08-30T11:53:36.109Z,25.50
2018-08-30T11:56:04.278Z,25.80
2018-08-30T11:58:32.475Z,25.80
2018-08-30T12:01:00.678Z,25.40
2018-08-30T12:03:28.846Z,25.60
2018-08-30T12:05:57.013Z,25.30
2018-08-30T12:08:25.340Z,25.50
2018-08-30T12:10:53.532Z,26.10
2018-08-30T12:13:21.623Z,26.00
2018-08-30T12:15:49.788Z,25.20
2018-08-30T12:18:17.962Z,25.10
2018-08-30T12:20:46.406Z,25.40
2018-08-30T12:23:14.616Z,25.70
2018-08-30T12:28:10.709Z,26.20
2018-08-30T12:30:38.881Z,25.80
2018-08-30T12:33:07.077Z,25.80
2018-08-30T12:35:35.329Z,25.60
2018-08-30T12:38:03.458Z,26.00
2018-08-30T12:40:31.727Z,26.00
2018-08-30T12:43:00.005Z,25.90
2018-08-30T12:45:28.034Z,25.90
2018-08-30T12:47:56.217Z,25.60
2018-08-30T12:50:24.514Z,25.90
2018-08-30T12:52:52.652Z,25.60
2018-08-30T12:55:21.076Z,26.20
2018-08-30T13:00:17.127Z,26.50
2018-08-30T13:02:45.455Z,26.50
2018-08-30T13:05:13.801Z,26.00
2018-08-30T13:07:41.959Z,24.90
2018-08-30T13:10:10.276Z,25.20
2018-08-30T13:12:38.503Z,24.80
2018-08-30T13:15:06.888Z,24.30
2018-08-30T13:17:35.140Z,24.10
2018-08-30T13:20:05.038Z,24.10
2018-08-30T13:22:33.598Z,24.00
2018-08-30T13:25:01.969Z,24.60
2018-08-30T13:27:29.872Z,25.30
2018-08-30T13:29:58.282Z,25.20
2018-08-30T13:32:26.548Z,25.30
2018-08-30T13:34:54.705Z,25.00
2018-08-30T13:37:22.864Z,24.40
2018-08-30T13:39:51.043Z,24.10
2018-08-30T13:42:19.365Z,24.10
2018-08-30T13:44:47.351Z,24.10
2018-08-30T13:47:15.668Z,23.90
2018-08-30T13:49:43.712Z,24.40
2018-08-30T13:52:11.940Z,24.90
2018-08-30T13:54:40.285Z,24.90
2018-08-30T13:57:08.742Z,25.00
2018-08-30T13:59:37.117Z,24.90
2018-08-30T14:02:05.091Z,24.90
2018-08-30T14:04:33.261Z,24.70
2018-08-30T14:07:01.332Z,24.10
2018-08-30T14:09:29.722Z,23.80
2018-08-30T14:11:57.916Z,24.10
2018-08-30T14:14:25.931Z,24.10
2018-08-30T14:16:53.805Z,24.60
2018-08-30T14:19:22.283Z,24.70
2018-08-30T14:21:50.169Z,24.50
2018-08-30T14:26:46.333Z,24.80
2018-08-30T14:29:14.431Z,23.60
2018-08-30T14:31:42.681Z,23.30
2018-08-30T14:34:10.859Z,23.40
2018-08-30T14:36:39.146Z,23.30
2018-08-30T14:39:08.691Z,23.60
2018-08-30T14:41:36.983Z,23.30
2018-08-30T14:44:05.152Z,23.10
2018-08-30T14:46:33.333Z,23.50
2018-08-30T14:49:01.507Z,24.10
2018-08-30T14:51:29.734Z,23.30
2018-08-30T14:53:58.205Z,23.20
2018-08-30T14:56:26.189Z,23.40
2018-08-30T14:58:54.374Z,23.40
2018-08-30T15:01:22.560Z,23.60
2018-08-30T15:03:50.757Z,23.20
2018-08-30T15:06:19.030Z,23.50
2018-08-30T15:08:47.201Z,23.30
2018-08-30T15:11:15.385Z,23.40
2018-08-30T15:13:43.548Z,23.40
2018-08-30T15:16:11.740Z,23.40
2018-08-30T15:18:39.894Z,23.40
2018-08-30T15:21:08.091Z,23.60
2018-08-30T15:23:36.319Z,23.50
2018-08-30T15:26:04.709Z,22.80
2018-08-30T15:28:32.736Z,23.20
2018-08-30T15:31:00.887Z,23.10
2018-08-30T15:33:29.068Z,23.10
2018-08-30T15:35:57.316Z,22.90
2018-08-30T15:38:25.558Z,22.70
2018-08-30T15:40:53.641Z,22.60
2018-08-30T15:43:21.808Z,22.60
2018-08-30T15:45:49.982Z,22.80
2018-08-30T15:48:18.244Z,22.90
2018-08-30T15:50:46.326Z,22.80
2018-08-30T15:53:14.500Z,22.70
2018-08-30T15:55:42.656Z,22.70
2018-08-30T15:58:10.935Z,22.50
2018-08-30T16:00:39.021Z,22.20
2018-08-30T16:03:07.188Z,22.10
2018-08-30T16:05:35.353Z,22.50
2018-08-30T16:08:03.533Z,22.60
2018-08-30T16:10:31.706Z,22.30
2018-08-30T16:12:59.943Z,22.40
2018-08-30T16:15:28.044Z,22.70
2018-08-30T16:17:56.190Z,22.60
2018-08-30T16:20:24.404Z,22.70
2018-08-30T16:23:55.721Z,22.60
2018-08-30T16:26:24.050Z,22.00
2018-08-30T16:33:48.094Z,21.90
2018-08-30T16:38:44.182Z,21.80
2018-08-30T16:43:40.272Z,21.90
2018-08-30T16:46:08.463Z,22.30
2018-08-30T16:48:36.643Z,21.70
2018-08-30T16:51:04.842Z,21.70
2018-08-30T16:53:33.044Z,21.60
2018-08-30T16:56:01.229Z,21.50
2018-08-30T16:58:29.350Z,20.70
2018-08-30T17:00:57.512Z,20.80
2018-08-30T17:03:25.678Z,20.50
2018-08-30T17:05:53.866Z,20.30
2018-08-30T17:08:22.025Z,20.20
2018-08-30T17:10:50.177Z,20.30
2018-08-30T17:13:18.349Z,20.00
2018-08-30T17:15:46.594Z,20.10
2018-08-30T17:18:14.745Z,20.00
2018-08-30T17:20:46.801Z,19.90
2018-08-30T17:25:43.476Z,20.30
2018-08-30T17:30:39.837Z,19.70
2018-08-30T17:33:08.149Z,19.70
2018-08-30T17:35:36.329Z,19.40
2018-08-30T17:38:04.566Z,19.20
2018-08-30T17:40:32.874Z,19.30
2018-08-30T17:43:01.061Z,18.90
2018-08-30T17:45:31.547Z,19.20
2018-08-30T17:47:59.657Z,19.10
2018-08-30T17:50:27.932Z,19.10
2018-08-30T17:52:56.840Z,19.00
2018-08-30T17:55:25.047Z,18.70
2018-08-30T17:57:53.277Z,19.10
2018-08-30T18:00:21.466Z,18.90
2018-08-30T18:02:49.656Z,18.90
2018-08-30T18:05:17.878Z,18.60
2018-08-30T18:07:46.086Z,18.80
2018-08-30T18:10:14.274Z,18.80
2018-08-30T18:12:42.512Z,18.70
2018-08-30T18:15:12.579Z,18.70
2018-08-30T18:17:40.757Z,18.70
2018-08-30T18:20:08.960Z,18.40
2018-08-30T18:22:37.140Z,18.60
2018-08-30T18:25:05.376Z,18.60
2018-08-30T18:27:33.561Z,18.40
2018-08-30T18:30:01.782Z,18.70
2018-08-30T18:32:31.988Z,18.60
2018-08-30T18:35:00.269Z,18.50
2018-08-30T18:37:28.418Z,18.20
2018-08-30T18:39:56.593Z,18.40
2018-08-30T18:42:24.806Z,19.10
2018-08-30T18:44:52.942Z,18.10
2018-08-30T18:47:21.093Z,18.30
2018-08-30T18:49:49.289Z,18.50
2018-08-30T18:52:18.282Z,18.20
2018-08-30T18:54:46.453Z,18.50
2018-08-30T18:57:14.625Z,18.90
2018-08-30T18:59:42.801Z,18.40
2018-08-30T19:02:11.007Z,18.40
2018-08-30T19:04:39.166Z,18.60
2018-08-30T19:07:07.341Z,18.50
2018-08-30T19:09:35.519Z,18.70
2018-08-30T19:12:03.692Z,18.40
2018-08-30T19:14:33.414Z,18.10
2018-08-30T19:17:07.588Z,18.50
2018-08-30T19:19:48.826Z,18.60
2018-08-30T19:22:17.113Z,18.40
2018-08-30T19:24:50.772Z,18.20
2018-08-30T19:27:18.973Z,18.00
2018-08-30T19:29:52.697Z,18.20
2018-08-30T19:32:21.028Z,18.30
2018-08-30T19:34:49.255Z,18.00
2018-08-30T19:37:17.622Z,18.30
2018-08-30T19:39:45.831Z,18.30
2018-08-30T19:42:14.241Z,18.20
2018-08-30T19:44:42.413Z,18.30
2018-08-30T19:47:10.607Z,18.30
2018-08-30T19:49:38.781Z,18.20
2018-08-30T19:52:06.970Z,18.30
2018-08-30T19:54:35.154Z,18.20
2018-08-30T19:57:03.304Z,18.10
2018-08-30T19:59:31.478Z,17.70
2018-08-30T20:01:59.643Z,17.70
2018-08-30T20:04:27.832Z,17.90
2018-08-30T20:06:56.009Z,17.80
2018-08-30T20:09:24.222Z,17.70
2018-08-30T20:11:52.358Z,17.70
2018-08-30T20:14:24.962Z,17.60
2018-08-30T20:16:53.111Z,17.50
2018-08-30T20:19:21.273Z,17.80
2018-08-30T20:21:49.448Z,17.50
2018-08-30T20:24:18.541Z,17.70
2018-08-30T20:26:46.701Z,17.50
2018-08-30T20:29:14.960Z,17.00
2018-08-30T20:31:43.137Z,17.70
2018-08-30T20:34:11.373Z,17.60
2018-08-30T20:36:39.561Z,17.80
2018-08-30T20:39:07.788Z,17.50
2018-08-30T20:41:35.973Z,17.70
2018-08-30T20:44:04.146Z,17.50
2018-08-30T20:46:32.402Z,17.50
2018-08-30T20:49:00.553Z,17.20
2018-08-30T20:51:28.746Z,17.20
2018-08-30T20:53:56.909Z,17.70
2018-08-30T20:56:25.097Z,17.50
2018-08-30T21:01:21.224Z,17.50
2018-08-30T21:03:49.402Z,17.40
2018-08-30T21:06:17.564Z,17.30
2018-08-30T21:08:45.753Z,17.30
2018-08-30T21:11:13.932Z,17.30
2018-08-30T21:13:42.228Z,17.30
2018-08-30T21:16:10.447Z,17.40
2018-08-30T21:18:38.642Z,17.40
2018-08-30T21:21:06.900Z,17.40
2018-08-30T21:23:34.997Z,17.30
2018-08-30T21:26:03.184Z,17.10
2018-08-30T21:28:31.392Z,17.10
2018-08-30T21:30:59.560Z,17.10
2018-08-30T21:33:27.738Z,17.20
2018-08-30T21:35:55.912Z,17.10
2018-08-30T21:38:24.105Z,17.00
2018-08-30T21:40:52.280Z,17.10
2018-08-30T21:43:20.481Z,17.00
2018-08-30T21:45:48.642Z,17.10
2018-08-30T21:48:16.843Z,17.00
2018-08-30T21:50:45.075Z,17.00
2018-08-30T21:53:13.266Z,16.90
2018-08-30T21:55:41.450Z,17.20
2018-08-30T21:58:09.626Z,17.00
2018-08-30T22:00:37.802Z,16.80
2018-08-30T22:03:05.996Z,16.80
2018-08-30T22:05:35.450Z,17.00
2018-08-30T22:08:03.649Z,16.80
2018-08-30T22:10:31.817Z,17.00
2018-08-30T22:13:00.388Z,17.00
2018-08-30T22:15:29.329Z,17.00
2018-08-30T22:17:57.526Z,17.00
2018-08-30T22:20:25.732Z,17.10
2018-08-30T22:22:54.018Z,17.10
2018-08-30T22:25:22.198Z,17.00
2018-08-30T22:27:50.378Z,17.20
2018-08-30T22:30:18.590Z,17.10
2018-08-30T22:32:46.806Z,17.20
2018-08-30T22:35:15.006Z,17.10
2018-08-30T22:37:43.177Z,17.10
2018-08-30T22:42:39.312Z,17.00
2018-08-30T22:45:07.489Z,17.00
2018-08-30T22:47:35.664Z,17.00
2018-08-30T22:50:03.973Z,17.00
2018-08-30T22:52:32.146Z,17.00
2018-08-30T22:55:00.345Z,17.00
2018-08-30T22:57:28.555Z,16.90
2018-08-30T22:59:56.737Z,16.80
2018-08-30T23:02:24.986Z,16.90
2018-08-30T23:04:53.180Z,17.00
2018-08-30T23:07:21.409Z,17.10
2018-08-30T23:09:49.613Z,16.90
2018-08-30T23:12:17.797Z,17.00
2018-08-30T23:14:46.021Z,16.60
2018-08-30T23:17:14.208Z,16.90
2018-08-30T23:19:42.417Z,16.80
2018-08-30T23:22:10.602Z,16.80
2018-08-30T23:24:38.852Z,16.70
2018-08-30T23:27:07.049Z,16.50
2018-08-30T23:29:35.205Z,16.90
2018-08-30T23:32:03.417Z,16.90
2018-08-30T23:34:31.606Z,16.90
2018-08-30T23:36:59.820Z,16.80
2018-08-30T23:39:27.999Z,16.90
2018-08-30T23:41:56.204Z,16.90
2018-08-30T23:44:24.372Z,16.90
2018-08-30T23:46:52.584Z,17.00
2018-08-30T23:49:20.757Z,17.00
2018-08-30T23:51:48.935Z,17.00
2018-08-30T23:54:17.103Z,17.00
2018-08-30T23:56:45.279Z,17.00
2018-08-30T23:59:24.959Z,16.90
